Time;durP1;ratioP1;P1;durP2;ratioP2;P2;SDS_P1;SDS_P2;PMS_P1;PMS_P2;Temp;Humidity;BMP_temperature;BMP_pressure;BME280_temperature;BME280_humidity;BME280_pressure;Samples;Min_cycle;Max_cycle;Signal;HPM_P1;HPM_P2
2023/10/11 00:01:14;;;;;;;3.30;3.00;;;14.80;96.60;;;14.97;62.42;95637.38;5007530;28;20485;-60
2023/10/11 00:03:52;;;;;;;4.80;3.27;;;14.70;96.70;;;14.95;62.47;95643.78;5007331;28;20535;-62
2023/10/11 00:06:19;;;;;;;4.73;2.73;;;14.70;96.70;;;14.91;62.51;95647.72;5003280;28;20535;-62
2023/10/11 00:08:46;;;;;;;5.10;3.50;;;14.70;96.80;;;14.90;62.70;95654.00;5003707;28;21005;-61
2023/10/11 00:11:19;;;;;;;6.80;3.90;;;14.60;96.80;;;14.86;63.05;95650.81;5002518;28;20479;-61
2023/10/11 00:13:46;;;;;;;10.63;4.10;;;14.60;97.10;;;14.81;62.91;95651.25;5000587;28;20442;-62
2023/10/11 00:16:17;;;;;;;8.13;2.87;;;14.60;97.30;;;14.78;63.24;95645.41;4997961;28;20543;-61
2023/10/11 00:18:44;;;;;;;6.33;3.10;;;14.60;97.30;;;14.77;63.12;95635.81;5003676;28;21044;-61
2023/10/11 00:21:15;;;;;;;9.33;3.97;;;14.50;97.40;;;14.75;63.12;95641.25;4999165;28;20966;-61
2023/10/11 00:23:44;;;;;;;10.67;3.20;;;14.50;97.40;;;14.74;63.46;95646.69;4999535;28;20478;-63
2023/10/11 00:26:14;;;;;;;4.30;3.27;;;14.50;97.70;;;14.70;63.45;95652.28;4999814;28;20490;-61
2023/10/11 00:28:41;;;;;;;15.03;4.00;;;14.50;97.70;;;14.67;63.34;95649.94;4997476;28;20454;-61
2023/10/11 00:31:18;;;;;;;7.03;3.60;;;14.40;97.60;;;14.64;63.78;95655.50;5000968;28;20475;-62
2023/10/11 00:33:46;;;;;;;8.50;2.93;;;14.40;97.80;;;14.60;63.52;95646.19;5003072;28;20441;-60
2023/10/11 00:36:15;;;;;;;3.47;3.17;;;14.40;97.90;;;14.56;63.85;95642.13;4998759;28;21029;-61
2023/10/11 00:38:47;;;;;;;6.53;4.07;;;14.30;98.00;;;14.54;63.89;95646.72;4998825;28;20458;-61
2023/10/11 00:41:17;;;;;;;8.50;3.63;;;14.30;98.10;;;14.51;64.02;95645.19;5000744;28;20554;-61
2023/10/11 00:43:50;;;;;;;10.40;3.40;;;14.30;98.30;;;14.49;64.25;95649.00;5002872;28;20508;-62
2023/10/11 00:46:22;;;;;;;10.43;3.70;;;14.20;98.30;;;14.46;64.08;95636.88;4998278;28;20461;-62
2023/10/11 00:48:57;;;;;;;3.50;2.90;;;14.20;98.40;;;14.44;63.95;95630.06;4999448;28;21210;-63
2023/10/11 00:51:29;;;;;;;6.40;3.63;;;14.20;98.40;;;14.41;64.12;95635.66;4998633;28;20502;-61
2023/10/11 00:53:56;;;;;;;7.40;4.13;;;14.20;98.40;;;14.39;64.01;95627.00;5002372;28;20835;-62
2023/10/11 00:56:26;;;;;;;6.50;3.30;;;14.20;98.50;;;14.38;64.43;95630.66;4999460;28;20563;-60
2023/10/11 00:58:54;;;;;;;3.40;3.10;;;14.10;98.60;;;14.34;64.52;95630.09;4998654;28;20534;-61
2023/10/11 01:01:22;;;;;;;7.30;3.67;;;14.10;98.60;;;14.32;64.52;95637.34;5004024;28;20482;-59
2023/10/11 01:03:51;;;;;;;9.33;4.23;;;14.10;98.70;;;14.28;65.30;95646.53;5001555;28;20517;-61
2023/10/11 01:06:19;;;;;;;12.23;4.00;;;14.00;99.10;;;14.19;64.42;95644.75;5007614;28;20477;-61
2023/10/11 01:08:48;;;;;;;6.73;4.37;;;14.00;98.80;;;14.12;64.83;95647.13;4996765;28;20518;-61
2023/10/11 01:11:15;;;;;;;5.47;4.17;;;13.90;99.00;;;14.06;64.80;95650.34;5001779;28;21009;-60
2023/10/11 01:13:50;;;;;;;9.13;4.47;;;13.90;99.00;;;14.02;65.26;95648.97;4998980;28;20832;-61
2023/10/11 01:16:18;;;;;;;12.30;4.60;;;13.80;99.00;;;14.01;65.22;95660.53;4998536;28;20469;-61
2023/10/11 01:18:47;;;;;;;8.00;4.40;;;13.80;99.40;;;14.01;65.17;95660.53;5002359;28;20454;-62
2023/10/11 01:21:16;;;;;;;4.17;3.77;;;13.80;99.50;;;13.97;65.45;95652.88;4999249;28;20521;-60
2023/10/11 01:23:43;;;;;;;6.70;3.53;;;13.80;99.40;;;13.96;65.24;95656.50;5004892;28;20486;-61
2023/10/11 01:26:11;;;;;;;5.13;3.90;;;13.80;99.50;;;13.95;65.30;95662.75;4998543;28;20489;-62
2023/10/11 01:28:40;;;;;;;6.87;4.40;;;13.80;99.60;;;13.94;65.60;95666.38;4996671;28;20451;-61
2023/10/11 01:31:09;;;;;;;8.67;3.57;;;13.70;99.50;;;13.91;65.65;95660.53;4998261;28;20466;-62
2023/10/11 01:33:40;;;;;;;7.80;4.40;;;13.70;99.60;;;13.89;65.55;95660.66;5001465;28;20493;-62
2023/10/11 01:36:08;;;;;;;8.00;4.30;;;13.70;99.70;;;13.88;65.78;95659.00;4995980;28;20470;-60
2023/10/11 01:38:46;;;;;;;5.67;4.00;;;13.70;99.80;;;13.86;65.69;95657.47;4999043;28;20826;-61
2023/10/11 01:41:16;;;;;;;7.13;4.73;;;13.70;99.80;;;13.84;65.39;95662.91;5005818;28;20978;-62
2023/10/11 01:43:45;;;;;;;5.90;3.90;;;13.60;99.70;;;13.84;65.99;95672.66;5002039;28;20573;-62
2023/10/11 01:46:16;;;;;;;13.50;5.37;;;13.60;99.90;;;13.81;65.56;95676.41;5002757;28;20485;-63
2023/10/11 01:48:43;;;;;;;9.50;4.00;;;13.60;99.70;;;13.75;65.93;95684.91;4998452;28;20517;-61
2023/10/11 01:51:11;;;;;;;9.33;3.93;;;13.60;99.90;;;13.70;65.88;95684.50;5001283;28;20477;-61
2023/10/11 01:53:39;;;;;;;10.93;4.63;;;13.50;99.90;;;13.67;66.08;95690.06;4998633;28;20508;-60
2023/10/11 01:56:07;;;;;;;4.00;3.70;;;13.50;99.90;;;13.63;65.62;95697.41;5000574;28;20472;-61
2023/10/11 01:58:37;;;;;;;5.20;4.40;;;13.40;99.90;;;13.56;65.83;95683.09;5002303;28;20459;-63
2023/10/11 02:01:07;;;;;;;4.93;4.43;;;13.40;99.90;;;13.54;66.26;95690.31;5003128;28;20465;-60
2023/10/11 02:03:39;;;;;;;5.60;4.20;;;13.30;99.90;;;13.51;65.62;95696.72;4995957;28;20455;-62
2023/10/11 02:06:07;;;;;;;6.20;5.23;;;13.30;99.90;;;13.47;65.86;95691.84;5000768;28;20843;-60
2023/10/11 02:08:36;;;;;;;13.33;4.90;;;13.30;99.90;;;13.42;66.02;95692.25;5001891;28;20454;-62
2023/10/11 02:11:05;;;;;;;10.33;4.20;;;13.20;99.90;;;13.40;66.23;95694.19;5004093;28;21033;-61
2023/10/11 02:13:34;;;;;;;8.93;4.83;;;13.20;99.90;;;13.38;66.36;95701.41;5001190;28;20552;-62
2023/10/11 02:16:01;;;;;;;4.27;3.87;;;13.20;99.90;;;13.37;66.22;95702.38;4997426;28;20469;-61
2023/10/11 02:18:29;;;;;;;8.33;4.10;;;13.20;99.90;;;13.37;66.27;95699.72;5002273;28;20536;-62
2023/10/11 02:20:57;;;;;;;9.63;4.03;;;13.10;99.90;;;13.37;66.32;95702.38;5000974;28;20506;-61
2023/10/11 02:23:25;;;;;;;7.73;4.67;;;13.20;99.90;;;13.35;66.49;95707.78;5001319;28;20947;-62
2023/10/11 02:25:53;;;;;;;8.83;4.20;;;13.20;99.90;;;13.32;66.62;95702.75;5000030;28;20513;-62
2023/10/11 02:28:21;;;;;;;9.43;4.27;;;13.10;99.90;;;13.31;66.14;95711.66;5003177;28;20460;-60
2023/10/11 02:30:49;;;;;;;7.70;4.43;;;13.10;99.90;;;13.30;66.31;95710.00;4995566;28;20470;-60
2023/10/11 02:33:17;;;;;;;6.93;4.80;;;13.10;99.90;;;13.27;66.73;95705.81;5003646;28;20462;-60
2023/10/11 02:35:56;;;;;;;5.53;3.80;;;13.10;99.90;;;13.27;66.60;95710.25;5001168;28;21010;-62
2023/10/11 02:38:23;;;;;;;7.90;4.50;;;13.10;99.90;;;13.25;66.80;95718.31;4996637;28;20969;-62
2023/10/11 02:40:56;;;;;;;8.33;4.57;;;13.10;99.90;;;13.25;66.57;95718.31;5005295;28;20636;-62
2023/10/11 02:43:26;;;;;;;15.20;5.17;;;13.10;99.90;;;13.23;66.95;95725.56;5006019;28;21036;-62
2023/10/11 02:45:53;;;;;;;12.80;5.03;;;13.00;99.90;;;13.21;66.74;95730.13;5005904;28;20500;-62
2023/10/11 02:48:21;;;;;;;10.20;5.20;;;13.00;99.90;;;13.21;66.86;95730.13;5006279;28;20842;-62
2023/10/11 02:50:49;;;;;;;5.97;4.87;;;13.00;99.90;;;13.21;66.60;95735.41;5003152;28;20500;-60
2023/10/11 02:53:22;;;;;;;5.63;4.67;;;13.00;99.90;;;13.21;66.62;95742.50;5001672;28;20457;-61
2023/10/11 02:55:57;;;;;;;12.50;4.27;;;13.00;99.90;;;13.20;66.25;95746.09;5003234;28;20473;-61
2023/10/11 02:58:27;;;;;;;4.40;3.90;;;13.00;99.90;;;13.18;66.01;95735.66;5002826;28;20473;-60
2023/10/11 03:00:59;;;;;;;10.33;4.10;;;13.00;99.90;;;13.17;66.01;95735.84;5003152;28;20474;-60
2023/10/11 03:03:27;;;;;;;11.03;4.87;;;13.00;99.90;;;13.15;66.05;95738.63;5005084;28;21132;-61
2023/10/11 03:05:56;;;;;;;10.17;4.40;;;13.00;99.90;;;13.15;66.08;95749.19;5005895;28;20851;-61
2023/10/11 03:08:26;;;;;;;3.63;3.30;;;12.90;99.90;;;13.12;66.00;95738.03;5001801;28;20998;-61
2023/10/11 03:10:57;;;;;;;5.00;3.90;;;12.90;99.90;;;13.09;66.25;95745.25;5005151;28;20998;-60
2023/10/11 03:13:30;;;;;;;11.63;4.73;;;12.90;99.90;;;13.06;66.10;95742.88;5007639;28;20460;-68
2023/10/11 03:15:58;;;;;;;6.33;3.93;;;12.90;99.90;;;13.05;66.07;95750.94;5008424;28;20472;-61
2023/10/11 03:18:26;;;;;;;11.37;4.30;;;12.90;99.90;;;13.02;65.99;95749.38;5005087;28;20454;-59
2023/10/11 03:23:44;;;;;;;7.27;5.10;;;12.80;99.90;;;12.98;65.59;95755.06;5000188;28;20461;-61
2023/10/11 03:26:17;;;;;;;12.87;3.87;;;12.80;99.90;;;12.94;65.92;95751.03;5003899;28;20537;-61
2023/10/11 03:29:05;;;;;;;7.73;4.67;;;12.80;99.90;;;12.90;66.32;95753.94;5004711;28;20473;-62
2023/10/11 03:31:34;;;;;;;8.67;4.40;;;12.80;99.90;;;12.86;66.02;95760.44;5003871;28;20492;-61
2023/10/11 03:34:10;;;;;;;6.33;5.70;;;12.70;99.90;;;12.85;66.52;95756.13;5004535;28;20458;-61
2023/10/11 03:36:43;;;;;;;9.10;5.07;;;12.70;99.90;;;12.80;66.40;95760.97;5004693;28;20478;-62
2023/10/11 03:39:10;;;;;;;12.80;4.50;;;12.60;99.90;;;12.76;66.19;95759.56;5004253;28;20450;-61
2023/10/11 03:41:44;;;;;;;3.80;3.50;;;12.60;99.90;;;12.75;66.71;95765.81;5001397;28;20550;-62
2023/10/11 03:44:17;;;;;;;7.97;4.47;;;12.60;99.90;;;12.73;66.77;95767.72;5003699;28;20515;-61
2023/10/11 03:46:47;;;;;;;7.20;4.60;;;12.60;99.90;;;12.72;67.04;95763.44;5003377;28;20476;-62
2023/10/11 03:49:35;;;;;;;4.50;4.10;;;12.60;99.90;;;12.71;67.12;95775.78;5000994;28;20504;-61
2023/10/11 03:52:04;;;;;;;6.77;4.30;;;12.60;99.90;;;12.71;67.07;95770.50;5008511;28;20468;-60
2023/10/11 03:54:31;;;;;;;3.63;3.43;;;12.60;99.90;;;12.72;67.04;95771.38;4997852;28;20832;-61
2023/10/11 03:57:03;;;;;;;5.30;3.80;;;12.50;99.90;;;12.73;67.08;95775.66;5002668;28;21083;-59
2023/10/11 03:59:38;;;;;;;16.50;4.77;;;12.50;99.90;;;12.75;67.10;95779.03;5007338;28;20450;-62
2023/10/11 04:02:10;;;;;;;7.63;4.37;;;12.60;99.90;;;12.76;66.99;95770.13;5004998;28;20464;-61
2023/10/11 04:04:40;;;;;;;5.57;3.90;;;12.60;99.90;;;12.79;66.87;95783.06;5003768;28;20508;-59
2023/10/11 04:07:12;;;;;;;5.53;3.97;;;12.60;99.90;;;12.82;67.38;95780.16;5001781;28;20467;-62
2023/10/11 04:09:39;;;;;;;7.30;3.90;;;12.60;99.90;;;12.84;67.45;95778.22;5004206;28;20449;-60
2023/10/11 04:12:10;;;;;;;6.63;3.70;;;12.70;99.90;;;12.83;67.19;95773.91;5001140;28;20844;-62
2023/10/11 04:14:44;;;;;;;8.60;3.63;;;12.70;99.90;;;12.85;67.33;95782.53;5004489;28;20454;-60
2023/10/11 04:17:25;;;;;;;4.40;4.00;;;12.70;99.90;;;12.90;67.41;95788.28;5003569;28;20550;-61
2023/10/11 04:19:54;;;;;;;5.60;4.40;;;12.70;99.90;;;12.98;67.44;95790.25;5001007;28;20581;-62
2023/10/11 04:22:26;;;;;;;7.53;3.80;;;12.80;99.90;;;13.03;67.17;95790.69;5003076;28;20984;-62
2023/10/11 04:24:54;;;;;;;7.60;4.10;;;12.80;99.90;;;13.06;67.20;95787.78;5000050;28;20950;-61
2023/10/11 04:30:26;;;;;;;7.53;4.67;;;12.90;99.90;;;13.15;66.79;95786.16;5001791;28;20430;-63
2023/10/11 04:32:56;;;;;;;41.30;11.33;;;12.90;99.90;;;13.20;66.93;95785.72;5000172;28;20961;-61
2023/10/11 04:35:25;;;;;;;6.80;4.23;;;13.00;99.90;;;13.22;66.67;95795.19;5003109;28;20458;-63
2023/10/11 04:38:01;;;;;;;5.00;4.50;;;13.00;99.90;;;13.24;66.62;95787.16;5000338;28;20517;-61
2023/10/11 04:40:41;;;;;;;13.00;5.47;;;13.00;99.90;;;13.25;66.66;95800.22;5006035;28;20472;-65
2023/10/11 04:43:20;;;;;;;8.70;5.33;;;13.10;99.90;;;13.23;66.15;95793.38;5004326;28;20832;-63
2023/10/11 04:45:50;;;;;;;10.30;5.07;;;13.10;99.90;;;13.22;66.89;95797.03;4999558;28;20579;-62
2023/10/11 04:48:19;;;;;;;12.63;6.33;;;13.00;99.90;;;13.22;66.32;95802.31;5002240;28;20455;-61
2023/10/11 04:50:48;;;;;;;8.47;5.57;;;13.00;99.90;;;13.20;66.30;95798.94;5000908;28;20474;-64
2023/10/11 04:53:18;;;;;;;7.20;5.63;;;13.00;99.90;;;13.18;66.64;95796.44;5002427;28;20461;-61
2023/10/11 04:55:58;;;;;;;11.97;5.83;;;13.00;99.90;;;13.18;66.52;95796.44;5000599;28;20472;-63
2023/10/11 04:58:42;;;;;;;7.30;5.90;;;13.00;99.90;;;13.20;66.46;95801.56;4976887;28;20449;-61
2023/10/11 05:01:11;;;;;;;8.40;5.50;;;13.00;99.90;;;13.21;66.59;95806.72;5005980;28;20477;-61
2023/10/11 05:03:39;;;;;;;9.10;4.50;;;13.00;99.90;;;13.24;66.40;95811.75;5005891;28;20465;-62
2023/10/11 05:06:14;;;;;;;15.90;5.17;;;13.10;99.90;;;13.25;66.22;95808.16;5003318;28;20538;-62
2023/10/11 05:08:54;;;;;;;7.40;5.53;;;13.10;99.90;;;13.27;66.25;95818.59;4999364;28;20453;-61
2023/10/11 05:11:36;;;;;;;8.53;5.57;;;13.10;99.90;;;13.30;66.34;95825.41;5002277;28;20580;-62
2023/10/11 05:14:28;;;;;;;9.23;5.03;;;13.10;99.90;;;13.32;66.23;95823.47;5000062;28;20481;-62
2023/10/11 05:17:16;;;;;;;18.10;6.17;;;13.10;99.90;;;13.38;65.70;95831.72;4999524;28;20527;-62
2023/10/11 05:19:46;;;;;;;16.10;5.50;;;13.20;99.90;;;13.48;66.59;95831.78;4998868;28;20446;-62
2023/10/11 05:22:29;;;;;;;7.90;6.10;;;13.20;99.90;;;13.56;65.87;95826.66;5002541;28;20469;-60
2023/10/11 05:27:47;;;;;;;11.30;5.87;;;13.40;99.90;;;13.80;65.69;95828.94;4998578;28;20474;-63
2023/10/11 05:30:26;;;;;;;22.53;5.23;;;13.50;99.90;;;13.93;65.47;95835.78;5002056;28;20445;-64
2023/10/11 05:32:58;;;;;;;17.17;6.30;;;13.60;99.90;;;14.05;65.52;95831.19;5000886;28;20447;-60
2023/10/11 05:35:43;;;;;;;31.80;8.17;;;13.80;99.90;;;14.17;64.98;95830.09;4999901;28;20452;-61
2023/10/11 05:52:13;;;;;;;10.03;5.60;;;14.50;99.70;;;14.94;63.64;95854.88;4957222;28;20483;-62
2023/10/11 05:54:41;;;;;;;18.17;5.77;;;14.70;99.50;;;15.10;63.44;95861.41;4956428;28;20437;-62
2023/10/11 05:57:08;;;;;;;9.70;5.57;;;14.80;99.50;;;15.31;62.97;95861.22;4977374;28;20481;-61
2023/10/11 05:59:37;;;;;;;13.13;6.10;;;15.00;99.30;;;15.57;62.61;95856.94;4999843;28;20451;-61
2023/10/11 06:02:07;;;;;;;34.97;6.30;;;15.20;99.00;;;15.72;61.78;95862.59;5001928;28;20535;-62
2023/10/11 06:04:39;;;;;;;17.80;5.83;;;15.40;98.40;;;15.95;61.42;95867.50;5000552;28;20843;-62
2023/10/11 06:07:06;;;;;;;11.60;6.70;;;15.60;98.30;;;16.28;60.66;95870.50;4998175;28;20466;-62
2023/10/11 06:09:39;;;;;;;17.13;6.63;;;15.80;97.90;;;16.64;59.82;95874.03;4999826;28;20807;-61
2023/10/11 06:12:22;;;;;;;8.33;5.57;;;16.10;97.40;;;17.04;59.06;95879.88;4998839;28;20474;-63
2023/10/11 06:14:50;;;;;;;7.67;6.20;;;16.50;96.90;;;17.44;58.26;95881.09;5000053;28;20453;-64
2023/10/11 06:17:21;;;;;;;19.03;5.70;;;16.90;96.20;;;17.82;57.63;95886.13;4998976;28;20478;-64
2023/10/11 06:19:54;;;;;;;9.97;5.27;;;17.20;95.60;;;18.26;56.70;95884.16;4999994;28;20469;-64
2023/10/11 06:22:28;;;;;;;9.70;4.80;;;17.70;95.00;;;18.74;55.87;95887.03;5000044;28;20687;-63
2023/10/11 06:24:58;;;;;;;17.13;6.50;;;18.10;94.50;;;19.22;55.21;95876.56;4997984;28;20530;-63
2023/10/11 06:30:11;;;;;;;14.20;6.00;;;19.00;92.60;;;20.16;53.27;95890.16;4999856;28;21010;-65
2023/10/11 06:32:38;;;;;;;9.00;5.13;;;19.50;91.40;;;20.60;51.98;95896.75;5002018;28;20481;-63
2023/10/11 06:35:16;;;;;;;17.30;6.00;;;20.00;90.10;;;20.97;50.98;95894.38;5003796;28;20516;-64
2023/10/11 06:37:52;;;;;;;8.27;4.53;;;20.40;88.70;;;21.38;50.62;95894.84;5002280;28;20479;-62
2023/10/11 06:40:28;;;;;;;7.27;5.07;;;20.70;87.00;;;21.81;49.76;95891.56;4998764;28;20439;-64
2023/10/11 06:42:57;;;;;;;7.27;4.70;;;21.20;85.70;;;22.25;48.83;95898.75;5001567;28;20441;-62
2023/10/11 06:45:28;;;;;;;4.90;4.50;;;21.60;83.50;;;22.65;48.42;95904.63;4999375;28;21086;-63
2023/10/11 06:47:55;;;;;;;14.83;6.00;;;22.00;81.60;;;23.01;46.78;95905.59;5000403;28;20520;-63
2023/10/11 06:50:24;;;;;;;27.97;4.83;;;22.30;77.20;;;23.33;45.96;95906.09;4999112;28;20520;-62
2023/10/11 06:52:53;;;;;;;14.80;6.00;;;22.60;77.00;;;23.69;46.56;95902.47;4999619;28;20446;-65
2023/10/11 06:55:25;;;;;;;12.10;5.13;;;22.90;76.30;;;24.09;45.43;95902.69;4998787;28;20819;-65
2023/10/11 06:57:54;;;;;;;11.53;5.27;;;23.40;75.90;;;24.46;44.22;95900.56;5000102;28;20461;-63
2023/10/11 07:00:23;;;;;;;13.63;5.20;;;23.80;72.80;;;24.80;43.62;95893.47;4999999;28;20458;-62
2023/10/11 07:02:52;;;;;;;8.17;5.67;;;24.10;69.80;;;25.08;43.57;95897.84;5000186;28;20464;-64
2023/10/11 07:05:20;;;;;;;10.20;4.90;;;24.40;69.70;;;25.30;40.76;95888.59;5000047;28;20496;-64
2023/10/11 07:07:51;;;;;;;21.13;6.10;;;24.70;64.90;;;25.50;41.83;95891.28;4998977;28;20515;-63
2023/10/11 07:10:29;;;;;;;9.50;4.87;;;24.90;66.80;;;25.82;40.59;95896.81;5000458;28;20504;-64
2023/10/11 07:13:07;;;;;;;11.97;4.63;;;25.20;63.70;;;26.06;39.83;95889.97;4997713;28;20446;-64
2023/10/11 07:15:42;;;;;;;9.93;5.17;;;25.50;62.50;;;26.05;40.10;95887.47;4998534;28;20827;-64
2023/10/11 07:18:11;;;;;;;6.97;5.17;;;25.70;61.40;;;26.03;38.62;95876.09;4999508;28;20457;-63
2023/10/11 07:20:58;;;;;;;13.37;4.80;;;25.70;59.10;;;26.17;40.11;95875.00;4999302;28;20462;-63
2023/10/11 07:23:35;;;;;;;9.80;5.00;;;25.90;61.10;;;26.63;39.20;95873.09;5001278;28;20540;-63
2023/10/11 07:26:22;;;;;;;11.27;5.00;;;26.30;59.70;;;27.08;38.77;95870.38;5002199;28;20488;-63
2023/10/11 07:28:50;;;;;;;13.30;4.47;;;26.80;59.50;;;27.64;36.94;95867.88;5001724;28;20449;-61
2023/10/11 07:31:18;;;;;;;15.80;4.20;;;27.40;56.30;;;28.01;36.84;95873.31;5004168;28;20556;-62
2023/10/11 07:33:50;;;;;;;8.90;4.00;;;27.80;56.90;;;28.40;36.14;95871.22;5000770;28;20939;-64
2023/10/11 07:36:18;;;;;;;15.63;4.73;;;28.30;55.30;;;28.74;34.97;95885.97;5003742;28;20461;-64
2023/10/11 07:38:54;;;;;;;13.67;5.13;;;28.60;53.50;;;28.85;34.80;95889.78;5000855;28;20458;-64
2023/10/11 07:41:24;;;;;;;11.50;4.77;;;28.90;53.30;;;28.93;34.97;95892.16;5002469;28;20514;-64
2023/10/11 07:43:52;;;;;;;6.67;4.60;;;28.90;53.40;;;29.09;35.21;95892.56;5002758;28;20481;-64
2023/10/11 07:46:19;;;;;;;8.03;4.77;;;29.10;52.90;;;29.25;34.88;95883.81;5002103;28;20528;-63
2023/10/11 07:48:48;;;;;;;12.33;5.50;;;29.20;52.40;;;29.50;33.75;95891.72;5002339;28;20454;-62
2023/10/11 07:51:15;;;;;;;38.33;5.50;;;29.40;52.30;;;29.79;34.17;95889.16;5002420;28;20461;-64
2023/10/11 07:53:43;;;;;;;11.37;6.10;;;29.50;51.70;;;29.99;33.72;95883.41;5001662;28;20472;-64
2023/10/11 07:56:15;;;;;;;9.73;5.43;;;29.70;50.60;;;30.13;33.11;95889.41;5000434;28;20488;-65
2023/10/11 07:58:46;;;;;;;6.07;4.00;;;29.80;50.60;;;30.28;33.02;95886.16;5001969;28;20968;-64
2023/10/11 08:01:24;;;;;;;8.93;3.73;;;29.90;50.20;;;30.53;33.02;95888.59;5002834;28;20933;-63
2023/10/11 08:03:51;;;;;;;5.73;4.13;;;30.10;50.00;;;30.85;32.10;95884.59;5003955;28;20970;-64
2023/10/11 08:06:23;;;;;;;10.00;4.03;;;30.40;49.70;;;30.93;31.27;95892.34;5003583;28;20496;-63
2023/10/11 08:08:52;;;;;;;6.20;4.40;;;30.50;48.10;;;30.73;31.69;95895.50;5000035;28;20450;-64
2023/10/11 08:11:22;;;;;;;4.93;4.10;;;30.40;47.90;;;30.79;31.13;95896.44;5003120;28;20706;-64
2023/10/11 08:13:50;;;;;;;10.90;4.93;;;30.40;48.10;;;30.90;30.76;95903.69;5000439;28;20458;-64
2023/10/11 08:16:18;;;;;;;8.63;4.70;;;30.40;47.30;;;30.70;30.89;95904.94;5003050;28;20225;-65
2023/10/11 08:18:51;;;;;;;9.90;4.30;;;30.30;47.10;;;30.34;31.17;95897.97;5000566;28;20576;-64
2023/10/11 08:21:19;;;;;;;9.13;4.10;;;30.10;46.90;;;30.26;31.00;95903.75;5002451;28;20504;-64
2023/10/11 08:23:50;;;;;;;6.47;4.23;;;29.90;47.30;;;30.45;31.38;95904.47;5001285;28;20477;-65
2023/10/11 08:26:17;;;;;;;11.43;4.90;;;30.00;47.70;;;30.67;30.60;95904.63;5001958;28;20507;-64
2023/10/11 08:28:49;;;;;;;7.90;5.53;;;30.10;47.30;;;30.52;30.45;95899.69;5001149;28;20454;-63
2023/10/11 08:31:35;;;;;;;10.20;5.60;;;30.00;46.10;;;29.91;31.05;95897.28;5001250;28;20484;-64
2023/10/11 08:34:03;;;;;;;10.50;4.73;;;29.60;46.50;;;29.25;31.08;95901.94;5002874;28;20515;-64
2023/10/11 08:36:33;;;;;;;15.40;4.97;;;29.00;46.50;;;28.66;32.38;95904.41;4998779;28;20478;-62
2023/10/11 08:39:06;;;;;;;10.83;5.13;;;28.40;47.60;;;28.12;32.32;95891.50;5003385;28;20487;-62
2023/10/11 08:41:34;;;;;;;14.23;5.07;;;27.90;48.00;;;27.54;33.02;95892.66;5000288;28;20470;-62
2023/10/11 08:44:08;;;;;;;11.20;4.00;;;27.40;48.70;;;27.26;33.74;95888.50;5001911;28;20841;-63
2023/10/11 08:46:36;;;;;;;10.80;5.37;;;27.10;49.30;;;27.48;33.75;95891.69;5001045;28;20525;-63
2023/10/11 08:49:03;;;;;;;18.30;5.17;;;27.10;50.20;;;27.94;33.84;95894.19;5001223;28;20488;-64
2023/10/11 08:51:36;;;;;;;23.60;4.60;;;27.30;50.40;;;28.39;33.41;95891.19;4999904;28;20905;-64
2023/10/11 08:54:11;;;;;;;4.77;4.00;;;27.70;49.70;;;28.66;32.50;95901.69;5000807;28;20528;-63
2023/10/11 08:56:39;;;;;;;25.23;6.13;;;27.90;49.10;;;28.95;31.94;95892.78;5001758;28;20930;-63
2023/10/11 08:59:14;;;;;;;7.53;4.70;;;28.20;49.10;;;29.38;32.51;95884.66;4999377;28;20867;-63
2023/10/11 09:01:45;;;;;;;5.63;4.60;;;28.60;48.80;;;29.80;31.59;95896.25;4999123;28;20480;-65
2023/10/11 09:04:14;;;;;;;12.60;4.53;;;29.00;47.90;;;30.04;30.72;95897.06;4999852;28;20469;-65
2023/10/11 09:06:44;;;;;;;12.23;5.13;;;29.30;47.40;;;30.27;30.54;95892.66;5001175;28;20587;-63
2023/10/11 09:09:15;;;;;;;11.53;4.50;;;29.60;47.40;;;30.45;31.20;95890.88;4999432;28;20442;-64
2023/10/11 09:11:54;;;;;;;4.43;3.93;;;29.80;47.10;;;30.73;30.72;95893.59;5001323;28;21031;-66
2023/10/11 09:14:23;;;;;;;6.60;4.60;;;30.00;46.80;;;31.04;30.57;95893.38;5001332;28;20203;-68
2023/10/11 09:16:52;;;;;;;10.23;4.30;;;30.30;47.30;;;31.13;29.83;95899.25;4999727;28;20507;-67
2023/10/11 09:19:21;;;;;;;23.17;4.60;;;30.50;45.50;;;30.98;30.09;95892.47;5001323;28;20236;-67
2023/10/11 09:22:01;;;;;;;13.33;4.80;;;30.50;45.50;;;31.03;29.60;95887.13;4998888;28;20473;-65
2023/10/11 09:24:37;;;;;;;10.63;5.50;;;30.50;45.50;;;31.24;29.80;95887.50;4999170;28;20446;-64
2023/10/11 09:27:18;;;;;;;15.93;4.73;;;30.60;45.50;;;31.52;29.68;95877.59;5000683;28;20699;-72
2023/10/11 09:29:48;;;;;;;4.47;3.83;;;30.80;45.60;;;31.66;28.87;95884.38;5001756;28;20226;-66
2023/10/11 09:32:19;;;;;;;12.87;4.43;;;31.00;44.20;;;31.36;28.93;95871.94;4998440;28;20227;-69
2023/10/11 09:34:47;;;;;;;13.50;4.40;;;30.90;44.20;;;31.22;29.25;95876.03;5002306;28;20202;-66
2023/10/11 09:37:14;;;;;;;5.93;4.17;;;30.80;44.50;;;31.13;29.63;95866.66;4997790;28;20325;-69
2023/10/11 09:39:42;;;;;;;9.73;3.77;;;30.70;44.60;;;31.10;29.34;95876.91;5001795;28;20213;-67
2023/10/11 09:42:12;;;;;;;4.83;4.40;;;30.60;44.30;;;30.87;29.06;95868.88;4998892;28;20234;-68
2023/10/11 09:44:43;;;;;;;8.60;4.80;;;30.40;44.00;;;30.64;29.72;95867.88;5001771;28;20686;-66
2023/10/11 09:47:16;;;;;;;17.07;6.03;;;30.20;44.10;;;30.55;29.53;95866.63;5002082;28;20593;-64
2023/10/11 09:49:46;;;;;;;4.70;3.77;;;30.10;45.20;;;30.63;29.86;95860.84;4998381;28;20833;-64
2023/10/11 09:52:16;;;;;;;8.67;3.73;;;30.10;45.20;;;30.69;29.58;95862.56;4999924;28;20285;-66
2023/10/11 09:54:43;;;;;;;7.53;3.80;;;30.10;45.20;;;30.88;29.73;95860.47;4999316;28;20370;-65
2023/10/11 09:57:20;;;;;;;8.03;3.77;;;30.20;45.30;;;31.13;29.76;95864.75;5001101;28;20308;-64
2023/10/11 09:59:59;;;;;;;5.80;4.13;;;30.40;45.40;;;31.31;29.11;95855.53;5000167;28;20442;-64
2023/10/11 10:02:34;;;;;;;4.93;4.03;;;30.60;44.50;;;31.30;28.81;95853.88;4997793;28;20234;-63
2023/10/11 10:05:05;;;;;;;11.50;4.23;;;30.70;44.10;;;31.26;29.20;95853.56;4998472;28;20202;-61
2023/10/11 10:07:42;;;;;;;8.53;4.50;;;30.70;44.00;;;31.18;29.00;95851.22;4999758;28;20240;-63
2023/10/11 10:10:11;;;;;;;18.13;4.07;;;30.60;44.00;;;31.06;28.22;95856.75;5000581;28;20203;-63
2023/10/11 10:12:41;;;;;;;8.23;4.70;;;30.50;43.30;;;30.92;29.00;95847.22;4999233;28;20317;-71
2023/10/11 10:15:12;;;;;;;6.73;4.10;;;30.40;43.90;;;30.86;29.22;95845.47;5000263;28;20229;-64
2023/10/11 10:17:42;;;;;;;11.13;4.27;;;30.30;44.40;;;30.88;29.41;95835.22;4998512;28;20246;-66
2023/10/11 10:20:42;;;;;;;5.17;3.07;;;30.40;44.00;;;30.86;28.57;95838.16;5000480;28;20205;-74
2023/10/11 10:23:30;;;;;;;6.57;4.13;;;30.30;43.90;;;30.88;28.83;95832.50;4959404;28;20207;-66
2023/10/11 10:26:40;;;;;;;4.80;3.53;;;30.30;44.30;;;30.91;28.96;95824.66;4957850;28;20507;-63
2023/10/11 10:29:14;;;;;;;5.40;3.70;;;30.30;43.70;;;30.88;29.22;95827.88;4991970;28;20202;-64
2023/10/11 10:32:09;;;;;;;7.10;4.40;;;30.30;44.10;;;30.81;29.56;95826.38;4997575;28;20265;-64
2023/10/11 10:34:41;;;;;;;9.00;3.93;;;30.30;43.80;;;30.65;29.71;95812.53;4997387;28;20577;-64
2023/10/11 10:37:08;;;;;;;7.63;3.70;;;30.10;44.40;;;30.70;30.00;95814.50;4997555;28;20237;-64
2023/10/11 10:39:47;;;;;;;9.33;3.80;;;30.10;44.40;;;30.74;28.85;95813.78;5000867;28;20205;-64
2023/10/11 10:42:16;;;;;;;7.43;4.70;;;30.10;44.10;;;30.53;29.24;95807.13;4999665;28;20594;-64
2023/10/11 10:44:52;;;;;;;6.80;3.70;;;30.00;44.00;;;30.33;29.88;95798.56;4998740;28;20205;-63
2023/10/11 10:47:26;;;;;;;6.73;4.20;;;29.80;44.20;;;30.18;29.22;95797.22;4999146;28;20248;-65
2023/10/11 10:49:55;;;;;;;7.53;4.40;;;29.60;44.10;;;29.87;29.39;95793.06;4996895;28;20328;-65
2023/10/11 10:52:25;;;;;;;4.80;4.17;;;29.40;44.40;;;29.78;30.59;95786.34;5000664;28;20222;-64
2023/10/11 10:55:01;;;;;;;13.13;4.50;;;29.30;44.70;;;29.67;29.88;95782.56;4997726;28;20664;-62
2023/10/11 10:57:27;;;;;;;8.50;4.30;;;29.10;44.60;;;29.53;30.14;95782.00;4998734;28;20227;-63
2023/10/11 10:59:55;;;;;;;8.77;3.47;;;29.00;45.20;;;29.44;30.16;95784.22;5002250;28;20543;-64
2023/10/11 11:02:21;;;;;;;16.00;4.27;;;28.90;44.90;;;29.35;30.81;95788.38;5002036;28;20561;-65